<?xml version="1.0"?>
<gpx xmlns="http://www.topografix.com/GPX/1/1" xmlns:xsi="http://www.w3.org/2001/XMLSchema-instance" xmlns:wptx1="http://www.garmin.com/xmlschemas/WaypointExtension/v1" xmlns:gpxtrx="http://www.garmin.com/xmlschemas/GpxExtensions/v3" xmlns:gpxtpx="http://www.garmin.com/xmlschemas/TrackPointExtension/v1" xmlns:gpxx="http://www.garmin.com/xmlschemas/GpxExtensions/v3" xmlns:trp="http://www.garmin.com/xmlschemas/TripExtensions/v1" xmlns:adv="http://www.garmin.com/xmlschemas/AdventuresExtensions/v1" xmlns:prs="http://www.garmin.com/xmlschemas/PressureExtension/v1" xmlns:tmd="http://www.garmin.com/xmlschemas/TripMetaDataExtensions/v1" xmlns:vptm="http://www.garmin.com/xmlschemas/ViaPointTransportationModeExtensions/v1" xmlns:ctx="http://www.garmin.com/xmlschemas/CreationTimeExtension/v1" xmlns:gpxacc="http://www.garmin.com/xmlschemas/AccelerationExtension/v1" xmlns:gpxpx="http://www.garmin.com/xmlschemas/PowerExtension/v1" xmlns:vidx1="http://www.garmin.com/xmlschemas/VideoExtension/v1" creator="Garmin Desktop App" version="1.1" xsi:schemaLocation="http://www.topografix.com/GPX/1/1 http://www.topografix.com/GPX/1/1/gpx.xsd http://www.garmin.com/xmlschemas/WaypointExtension/v1 http://www8.garmin.com/xmlschemas/WaypointExtensionv1.xsd http://www.garmin.com/xmlschemas/TrackPointExtension/v1 http://www.garmin.com/xmlschemas/TrackPointExtensionv1.xsd http://www.garmin.com/xmlschemas/GpxExtensions/v3 http://www8.garmin.com/xmlschemas/GpxExtensionsv3.xsd http://www.garmin.com/xmlschemas/ActivityExtension/v1 http://www8.garmin.com/xmlschemas/ActivityExtensionv1.xsd http://www.garmin.com/xmlschemas/AdventuresExtensions/v1 http://www8.garmin.com/xmlschemas/AdventuresExtensionv1.xsd http://www.garmin.com/xmlschemas/PressureExtension/v1 http://www.garmin.com/xmlschemas/PressureExtensionv1.xsd http://www.garmin.com/xmlschemas/TripExtensions/v1 http://www.garmin.com/xmlschemas/TripExtensionsv1.xsd http://www.garmin.com/xmlschemas/TripMetaDataExtensions/v1 http://www.garmin.com/xmlschemas/TripMetaDataExtensionsv1.xsd http://www.garmin.com/xmlschemas/ViaPointTransportationModeExtensions/v1 http://www.garmin.com/xmlschemas/ViaPointTransportationModeExtensionsv1.xsd http://www.garmin.com/xmlschemas/CreationTimeExtension/v1 http://www.garmin.com/xmlschemas/CreationTimeExtensionsv1.xsd http://www.garmin.com/xmlschemas/AccelerationExtension/v1 http://www.garmin.com/xmlschemas/AccelerationExtensionv1.xsd http://www.garmin.com/xmlschemas/PowerExtension/v1 http://www.garmin.com/xmlschemas/PowerExtensionv1.xsd http://www.garmin.com/xmlschemas/VideoExtension/v1 http://www.garmin.com/xmlschemas/VideoExtensionv1.xsd">

  <metadata>
    <link href="http://www.garmin.com">
      <text>Garmin International</text>
    </link>
    <time>2018-02-26T07:10:01Z</time>
    <bounds maxlat="12.964832950383425" maxlon="99.713056683540344" minlat="12.889462960883975" minlon="99.631545692682266"/>
  </metadata>

  <wpt lat="12.902078814804554" lon="99.681993015110493">
    <ele>107</ele>
    <name>KaengKrachan</name>
    <cmt>25-JAN-14 11:20:25</cmt>
    <desc>25-JAN-14 11:20:25</desc>
    <sym>Lodging</sym>
    <type>user</type>
    <extensions>
      <gpxx:WaypointExtension>
        <gpxx:DisplayMode>SymbolOnly</gpxx:DisplayMode>
      </gpxx:WaypointExtension>
      <wptx1:WaypointExtension>
        <wptx1:DisplayMode>SymbolOnly</wptx1:DisplayMode>
      </wptx1:WaypointExtension>
    </extensions>
  </wpt>

  <wpt lat="12.920007705688477" lon="99.631876945495605">
    <time>2014-01-26T09:11:31Z</time>
    <name>Sat Beer</name>
    <cmt>Road</cmt>
    <desc>Road</desc>
    <sym>Bar</sym>
    <type>user</type>
    <extensions>
      <gpxx:WaypointExtension>
        <gpxx:DisplayMode>SymbolOnly</gpxx:DisplayMode>
      </gpxx:WaypointExtension>
      <wptx1:WaypointExtension>
        <wptx1:DisplayMode>SymbolOnly</wptx1:DisplayMode>
      </wptx1:WaypointExtension>
      <ctx:CreationTimeExtension>
        <ctx:CreationTime>2014-01-26T09:11:31Z</ctx:CreationTime>
      </ctx:CreationTimeExtension>
    </extensions>
  </wpt>

  <wpt lat="12.960492633283138" lon="99.687784658744931">
    <ele>114</ele>
    <name>Sat Water</name>
    <cmt>25-JAN-14 15:43:24</cmt>
    <desc>25-JAN-14 15:43:24</desc>
    <sym>Drinking Water</sym>
    <type>user</type>
    <extensions>
      <gpxx:WaypointExtension>
        <gpxx:DisplayMode>SymbolOnly</gpxx:DisplayMode>
      </gpxx:WaypointExtension>
      <wptx1:WaypointExtension>
        <wptx1:DisplayMode>SymbolOnly</wptx1:DisplayMode>
      </wptx1:WaypointExtension>
    </extensions>
  </wpt>

  <trk>
    <name>Sat shortcut</name>
    <extensions>
      <gpxx:TrackExtension>
        <gpxx:DisplayColor>DarkRed</gpxx:DisplayColor>
      </gpxx:TrackExtension>
    </extensions>
    <trkseg>
      <trkpt lat="12.960532363504171" lon="99.687823886051774">
        <ele>113.572998046875</ele>
        <time>2014-01-25T08:43:05Z</time>
      </trkpt>
      <trkpt lat="12.960466146469116" lon="99.687813743948936">
        <ele>113.572998046875</ele>
        <time>2014-01-25T08:43:14Z</time>
      </trkpt>
      <trkpt lat="12.960489448159933" lon="99.687784323468804">
        <ele>115.49560546875</ele>
        <time>2014-01-25T08:43:29Z</time>
      </trkpt>
      <trkpt lat="12.960462709888816" lon="99.687827406451106">
        <ele>110.6888427734375</ele>
        <time>2014-01-25T08:58:01Z</time>
      </trkpt>
      <trkpt lat="12.960391212254763" lon="99.687903933227062">
        <ele>111.6502685546875</ele>
        <time>2014-01-25T08:58:16Z</time>
      </trkpt>
      <trkpt lat="12.960130451247096" lon="99.688022034242749">
        <ele>108.7662353515625</ele>
        <time>2014-01-25T08:58:32Z</time>
      </trkpt>
      <trkpt lat="12.959800707176328" lon="99.688174333423376">
        <ele>106.363037109375</ele>
        <time>2014-01-25T08:58:47Z</time>
      </trkpt>
      <trkpt lat="12.959399297833443" lon="99.688417157158256">
        <ele>106.8436279296875</ele>
        <time>2014-01-25T08:59:03Z</time>
      </trkpt>
      <trkpt lat="12.958790184929967" lon="99.688838012516499">
        <ele>107.3243408203125</ele>
        <time>2014-01-25T08:59:24Z</time>
      </trkpt>
      <trkpt lat="12.958259359002113" lon="99.689115872606635">
        <ele>105.8824462890625</ele>
        <time>2014-01-25T08:59:39Z</time>
      </trkpt>
      <trkpt lat="12.957323603332043" lon="99.689274625852704">
        <ele>102.037109375</ele>
        <time>2014-01-25T08:59:55Z</time>
      </trkpt>
      <trkpt lat="12.957258643582463" lon="99.689283929765224">
        <ele>98.6724853515625</ele>
        <time>2014-01-25T08:59:56Z</time>
      </trkpt>
      <trkpt lat="12.956716837361455" lon="99.689884576946497">
        <ele>97.711181640625</ele>
        <time>2014-01-25T09:00:08Z</time>
      </trkpt>
      <trkpt lat="12.956450628116727" lon="99.690476339310408">
        <ele>97.23046875</ele>
        <time>2014-01-25T09:00:17Z</time>
      </trkpt>
      <trkpt lat="12.95545301400125" lon="99.691183939576149">
        <ele>92.4239501953125</ele>
        <time>2014-01-25T09:00:33Z</time>
      </trkpt>
      <trkpt lat="12.954194387421012" lon="99.691894724965096">
        <ele>89.059326171875</ele>
        <time>2014-01-25T09:00:52Z</time>
      </trkpt>
      <trkpt lat="12.953203981742263" lon="99.692314323037863">
        <ele>88.0980224609375</ele>
        <time>2014-01-25T09:01:10Z</time>
      </trkpt>
      <trkpt lat="12.9522021766752" lon="99.692654041573405">
        <ele>90.5013427734375</ele>
        <time>2014-01-25T09:01:32Z</time>
      </trkpt>
      <trkpt lat="12.951357699930668" lon="99.692951096221805">
        <ele>88.5787353515625</ele>
        <time>2014-01-25T09:01:49Z</time>
      </trkpt>
      <trkpt lat="12.950097313150764" lon="99.693382177501917">
        <ele>82.330078125</ele>
        <time>2014-01-25T09:02:07Z</time>
      </trkpt>
      <trkpt lat="12.94847440905869" lon="99.693955415859818">
        <ele>75.600830078125</ele>
        <time>2014-01-25T09:02:28Z</time>
      </trkpt>
      <trkpt lat="12.946930630132556" lon="99.694483811035752">
        <ele>72.2362060546875</ele>
        <time>2014-01-25T09:02:50Z</time>
      </trkpt>
      <trkpt lat="12.945589357987046" lon="99.69511354342103">
        <ele>74.6395263671875</ele>
        <time>2014-01-25T09:03:12Z</time>
      </trkpt>
      <trkpt lat="12.944677406921983" lon="99.695873279124498">
        <ele>74.1588134765625</ele>
        <time>2014-01-25T09:03:31Z</time>
      </trkpt>
      <trkpt lat="12.943684319034219" lon="99.69657844863832">
        <ele>72.7169189453125</ele>
        <time>2014-01-25T09:03:49Z</time>
      </trkpt>
      <trkpt lat="12.942748311907053" lon="99.696767712011933">
        <ele>71.27490234375</ele>
        <time>2014-01-25T09:04:04Z</time>
      </trkpt>
      <trkpt lat="12.941721444949508" lon="99.696886148303747">
        <ele>73.1976318359375</ele>
        <time>2014-01-25T09:04:25Z</time>
      </trkpt>
      <trkpt lat="12.941616252064705" lon="99.696728317067027">
        <ele>74.6395263671875</ele>
        <time>2014-01-25T09:04:30Z</time>
      </trkpt>
      <trkpt lat="12.94140636920929" lon="99.69569256529212">
        <ele>76.5621337890625</ele>
        <time>2014-01-25T09:04:50Z</time>
      </trkpt>
      <trkpt lat="12.941286256536841" lon="99.695235751569271">
        <ele>78.4847412109375</ele>
        <time>2014-01-25T09:04:59Z</time>
      </trkpt>
      <trkpt lat="12.940813517197967" lon="99.694485738873482">
        <ele>80.88818359375</ele>
        <time>2014-01-25T09:05:18Z</time>
      </trkpt>
      <trkpt lat="12.940304903313518" lon="99.693760620430112">
        <ele>81.849365234375</ele>
        <time>2014-01-25T09:05:37Z</time>
      </trkpt>
      <trkpt lat="12.939839875325561" lon="99.693167768418789">
        <ele>83.2913818359375</ele>
        <time>2014-01-25T09:05:53Z</time>
      </trkpt>
      <trkpt lat="12.939542904496193" lon="99.692672146484256">
        <ele>83.77197265625</ele>
        <time>2014-01-25T09:06:07Z</time>
      </trkpt>
      <trkpt lat="12.939248280599713" lon="99.691955158486962">
        <ele>84.252685546875</ele>
        <time>2014-01-25T09:06:22Z</time>
      </trkpt>
      <trkpt lat="12.939010569825768" lon="99.691855078563094">
        <ele>84.7333984375</ele>
        <time>2014-01-25T09:06:28Z</time>
      </trkpt>
      <trkpt lat="12.937826374545693" lon="99.691808894276619">
        <ele>81.3687744140625</ele>
        <time>2014-01-25T09:06:48Z</time>
      </trkpt>
      <trkpt lat="12.936552995815873" lon="99.691847031936049">
        <ele>78.0040283203125</ele>
        <time>2014-01-25T09:07:07Z</time>
      </trkpt>
      <trkpt lat="12.936363983899355" lon="99.691846696659923">
        <ele>76.5621337890625</ele>
        <time>2014-01-25T09:07:10Z</time>
      </trkpt>
      <trkpt lat="12.936216546222568" lon="99.691880894824862">
        <ele>76.0814208984375</ele>
        <time>2014-01-25T09:07:13Z</time>
      </trkpt>
      <trkpt lat="12.935532834380865" lon="99.691862035542727">
        <ele>77.0428466796875</ele>
        <time>2014-01-25T09:07:27Z</time>
      </trkpt>
      <trkpt lat="12.935339212417603" lon="99.691693559288979">
        <ele>77.5234375</ele>
        <time>2014-01-25T09:07:32Z</time>
      </trkpt>
      <trkpt lat="12.935291351750493" lon="99.691606555134058">
        <ele>78.0040283203125</ele>
        <time>2014-01-25T09:07:34Z</time>
      </trkpt>
      <trkpt lat="12.935057329013944" lon="99.691521227359772">
        <ele>78.9654541015625</ele>
        <time>2014-01-25T09:07:40Z</time>
      </trkpt>
      <trkpt lat="12.934930343180895" lon="99.691532207652926">
        <ele>79.9266357421875</ele>
        <time>2014-01-25T09:07:43Z</time>
      </trkpt>
      <trkpt lat="12.933999197557569" lon="99.691763380542397">
        <ele>81.849365234375</ele>
        <time>2014-01-25T09:08:05Z</time>
      </trkpt>
      <trkpt lat="12.933913366869092" lon="99.6917874366045">
        <ele>82.330078125</ele>
        <time>2014-01-25T09:08:07Z</time>
      </trkpt>
      <trkpt lat="12.933652857318521" lon="99.69204836525023">
        <ele>83.2913818359375</ele>
        <time>2014-01-25T09:08:15Z</time>
      </trkpt>
      <trkpt lat="12.933598794043064" lon="99.69301731325686">
        <ele>85.694580078125</ele>
        <time>2014-01-25T09:08:33Z</time>
      </trkpt>
      <trkpt lat="12.933646403253078" lon="99.693183610215783">
        <ele>85.694580078125</ele>
        <time>2014-01-25T09:08:36Z</time>
      </trkpt>
      <trkpt lat="12.933535510674119" lon="99.693476893007755">
        <ele>86.17529296875</ele>
        <time>2014-01-25T09:08:42Z</time>
      </trkpt>
      <trkpt lat="12.933269888162613" lon="99.693622821941972">
        <ele>86.17529296875</ele>
        <time>2014-01-25T09:08:49Z</time>
      </trkpt>
      <trkpt lat="12.932397164404392" lon="99.694026745855808">
        <ele>84.7333984375</ele>
        <time>2014-01-25T09:09:09Z</time>
      </trkpt>
      <trkpt lat="12.931509269401431" lon="99.694321034476161">
        <ele>84.252685546875</ele>
        <time>2014-01-25T09:09:27Z</time>
      </trkpt>
      <trkpt lat="12.931393766775727" lon="99.694208800792694">
        <ele>85.2139892578125</ele>
        <time>2014-01-25T09:09:31Z</time>
      </trkpt>
      <trkpt lat="12.93134406208992" lon="99.694093465805054">
        <ele>88.0980224609375</ele>
        <time>2014-01-25T09:09:34Z</time>
      </trkpt>
      <trkpt lat="12.930992441251874" lon="99.694053987041116">
        <ele>87.1365966796875</ele>
        <time>2014-01-25T09:09:42Z</time>
      </trkpt>
      <trkpt lat="12.930141342803836" lon="99.694347269833088">
        <ele>80.88818359375</ele>
        <time>2014-01-25T09:09:54Z</time>
      </trkpt>
      <trkpt lat="12.92919410392642" lon="99.694443661719561">
        <ele>78.4847412109375</ele>
        <time>2014-01-25T09:10:10Z</time>
      </trkpt>
      <trkpt lat="12.928536459803581" lon="99.694334948435426">
        <ele>78.9654541015625</ele>
        <time>2014-01-25T09:10:18Z</time>
      </trkpt>
      <trkpt lat="12.928447611629963" lon="99.694353304803371">
        <ele>78.4847412109375</ele>
        <time>2014-01-25T09:10:21Z</time>
      </trkpt>
      <trkpt lat="12.928264969959855" lon="99.694561259821057">
        <ele>78.0040283203125</ele>
        <time>2014-01-25T09:10:28Z</time>
      </trkpt>
      <trkpt lat="12.92804092168808" lon="99.695864897221327">
        <ele>78.4847412109375</ele>
        <time>2014-01-25T09:10:52Z</time>
      </trkpt>
      <trkpt lat="12.927786279469728" lon="99.696262618526816">
        <ele>80.407470703125</ele>
        <time>2014-01-25T09:11:04Z</time>
      </trkpt>
      <trkpt lat="12.927495343610644" lon="99.696514159440994">
        <ele>81.849365234375</ele>
        <time>2014-01-25T09:11:16Z</time>
      </trkpt>
      <trkpt lat="12.927625682204962" lon="99.696984551846981">
        <ele>80.88818359375</ele>
        <time>2014-01-25T09:11:28Z</time>
      </trkpt>
      <trkpt lat="12.927985601127148" lon="99.697958445176482">
        <ele>77.0428466796875</ele>
        <time>2014-01-25T09:11:48Z</time>
      </trkpt>
      <trkpt lat="12.927814526483417" lon="99.698183415457606">
        <ele>78.4847412109375</ele>
        <time>2014-01-25T09:11:55Z</time>
      </trkpt>
      <trkpt lat="12.927051773294806" lon="99.69845867715776">
        <ele>79.9266357421875</ele>
        <time>2014-01-25T09:12:14Z</time>
      </trkpt>
      <trkpt lat="12.926074862480164" lon="99.698782218620181">
        <ele>80.407470703125</ele>
        <time>2014-01-25T09:12:34Z</time>
      </trkpt>
      <trkpt lat="12.92527824640274" lon="99.699053457006812">
        <ele>77.0428466796875</ele>
        <time>2014-01-25T09:12:49Z</time>
      </trkpt>
      <trkpt lat="12.923950469121337" lon="99.699545809999108">
        <ele>72.7169189453125</ele>
        <time>2014-01-25T09:13:13Z</time>
      </trkpt>
      <trkpt lat="12.922822097316384" lon="99.699946464970708">
        <ele>72.7169189453125</ele>
        <time>2014-01-25T09:13:33Z</time>
      </trkpt>
      <trkpt lat="12.922609113156796" lon="99.70003061927855">
        <ele>73.1976318359375</ele>
        <time>2014-01-25T09:13:37Z</time>
      </trkpt>
      <trkpt lat="12.921929927542806" lon="99.700399925932288">
        <ele>76.5621337890625</ele>
        <time>2014-01-25T09:13:56Z</time>
      </trkpt>
      <trkpt lat="12.921134065836668" lon="99.700805777683854">
        <ele>78.0040283203125</ele>
        <time>2014-01-25T09:14:19Z</time>
      </trkpt>
      <trkpt lat="12.920237369835377" lon="99.701265441253781">
        <ele>77.0428466796875</ele>
        <time>2014-01-25T09:14:38Z</time>
      </trkpt>
      <trkpt lat="12.919428516179323" lon="99.701675986871123">
        <ele>76.5621337890625</ele>
        <time>2014-01-25T09:14:55Z</time>
      </trkpt>
      <trkpt lat="12.919159373268485" lon="99.701804481446743">
        <ele>76.0814208984375</ele>
        <time>2014-01-25T09:15:04Z</time>
      </trkpt>
      <trkpt lat="12.918981006368995" lon="99.701546989381313">
        <ele>77.5234375</ele>
        <time>2014-01-25T09:15:15Z</time>
      </trkpt>
      <trkpt lat="12.918549086898565" lon="99.700655825436115">
        <ele>81.849365234375</ele>
        <time>2014-01-25T09:15:38Z</time>
      </trkpt>
      <trkpt lat="12.918005604296923" lon="99.699561232700944">
        <ele>86.17529296875</ele>
        <time>2014-01-25T09:16:04Z</time>
      </trkpt>
      <trkpt lat="12.917478885501623" lon="99.698507711291313">
        <ele>88.5787353515625</ele>
        <time>2014-01-25T09:16:26Z</time>
      </trkpt>
      <trkpt lat="12.916884273290634" lon="99.697377998381853">
        <ele>88.0980224609375</ele>
        <time>2014-01-25T09:16:47Z</time>
      </trkpt>
      <trkpt lat="12.916173236444592" lon="99.695904040709138">
        <ele>89.059326171875</ele>
        <time>2014-01-25T09:17:12Z</time>
      </trkpt>
      <trkpt lat="12.915657749399543" lon="99.694873904809356">
        <ele>88.5787353515625</ele>
        <time>2014-01-25T09:17:34Z</time>
      </trkpt>
      <trkpt lat="12.915013432502747" lon="99.693695828318596">
        <ele>91.9432373046875</ele>
        <time>2014-01-25T09:17:59Z</time>
      </trkpt>
      <trkpt lat="12.914519403129816" lon="99.692645072937012">
        <ele>95.3077392578125</ele>
        <time>2014-01-25T09:18:21Z</time>
      </trkpt>
      <trkpt lat="12.914057895541191" lon="99.691660283133388">
        <ele>97.711181640625</ele>
        <time>2014-01-25T09:18:41Z</time>
      </trkpt>
      <trkpt lat="12.913412824273109" lon="99.690341139212251">
        <ele>97.711181640625</ele>
        <time>2014-01-25T09:19:04Z</time>
      </trkpt>
      <trkpt lat="12.912664487957954" lon="99.688890315592289">
        <ele>97.711181640625</ele>
        <time>2014-01-25T09:19:29Z</time>
      </trkpt>
      <trkpt lat="12.912368103861809" lon="99.688255554065108">
        <ele>99.6337890625</ele>
        <time>2014-01-25T09:19:45Z</time>
      </trkpt>
      <trkpt lat="12.912070294842124" lon="99.687610482797027">
        <ele>102.998291015625</ele>
        <time>2014-01-25T09:20:06Z</time>
      </trkpt>
      <trkpt lat="12.911730911582708" lon="99.686907576397061">
        <ele>105.8824462890625</ele>
        <time>2014-01-25T09:20:29Z</time>
      </trkpt>
      <trkpt lat="12.911612475290895" lon="99.686658717691898">
        <ele>107.3243408203125</ele>
        <time>2014-01-25T09:20:36Z</time>
      </trkpt>
      <trkpt lat="12.911183405667543" lon="99.685824299231172">
        <ele>105.8824462890625</ele>
        <time>2014-01-25T09:20:55Z</time>
      </trkpt>
      <trkpt lat="12.910632966086268" lon="99.684757618233562">
        <ele>104.4404296875</ele>
        <time>2014-01-25T09:21:14Z</time>
      </trkpt>
      <trkpt lat="12.910041203722358" lon="99.683615248650312">
        <ele>108.28564453125</ele>
        <time>2014-01-25T09:21:37Z</time>
      </trkpt>
      <trkpt lat="12.909765355288982" lon="99.683063216507435">
        <ele>111.1695556640625</ele>
        <time>2014-01-25T09:21:55Z</time>
      </trkpt>
      <trkpt lat="12.909486992284656" lon="99.682524343952537">
        <ele>114.5341796875</ele>
        <time>2014-01-25T09:22:18Z</time>
      </trkpt>
      <trkpt lat="12.909223465248942" lon="99.681997625157237">
        <ele>118.37939453125</ele>
        <time>2014-01-25T09:22:40Z</time>
      </trkpt>
      <trkpt lat="12.908948790282011" lon="99.681467888876796">
        <ele>123.1861572265625</ele>
        <time>2014-01-25T09:23:02Z</time>
      </trkpt>
      <trkpt lat="12.908685598522425" lon="99.681550115346909">
        <ele>122.2247314453125</ele>
        <time>2014-01-25T09:23:11Z</time>
      </trkpt>
      <trkpt lat="12.907934747636318" lon="99.681996451690793">
        <ele>121.2635498046875</ele>
        <time>2014-01-25T09:23:31Z</time>
      </trkpt>
      <trkpt lat="12.907847743481398" lon="99.68227481469512">
        <ele>121.2635498046875</ele>
        <time>2014-01-25T09:23:35Z</time>
      </trkpt>
      <trkpt lat="12.907498050481081" lon="99.68311233446002">
        <ele>117.418212890625</ele>
        <time>2014-01-25T09:23:46Z</time>
      </trkpt>
      <trkpt lat="12.907251035794616" lon="99.683411652222276">
        <ele>116.456787109375</ele>
        <time>2014-01-25T09:23:51Z</time>
      </trkpt>
      <trkpt lat="12.90708557702601" lon="99.68352179042995">
        <ele>115.9761962890625</ele>
        <time>2014-01-25T09:23:54Z</time>
      </trkpt>
      <trkpt lat="12.906561708077788" lon="99.683727901428938">
        <ele>115.014892578125</ele>
        <time>2014-01-25T09:24:03Z</time>
      </trkpt>
      <trkpt lat="12.905828962102532" lon="99.683691523969173">
        <ele>112.1309814453125</ele>
        <time>2014-01-25T09:24:15Z</time>
      </trkpt>
      <trkpt lat="12.904793880879879" lon="99.683119039982557">
        <ele>107.8050537109375</ele>
        <time>2014-01-25T09:24:35Z</time>
      </trkpt>
      <trkpt lat="12.90467862971127" lon="99.683029940351844">
        <ele>108.28564453125</ele>
        <time>2014-01-25T09:24:38Z</time>
      </trkpt>
      <trkpt lat="12.904545776546001" lon="99.682949054986238">
        <ele>107.8050537109375</ele>
        <time>2014-01-25T09:24:41Z</time>
      </trkpt>
      <trkpt lat="12.903727870434523" lon="99.682951401919127">
        <ele>106.8436279296875</ele>
        <time>2014-01-25T09:24:55Z</time>
      </trkpt>
      <trkpt lat="12.902782140299678" lon="99.683037819340825">
        <ele>105.8824462890625</ele>
        <time>2014-01-25T09:25:13Z</time>
      </trkpt>
      <trkpt lat="12.90265423245728" lon="99.682921394705772">
        <ele>106.8436279296875</ele>
        <time>2014-01-25T09:25:17Z</time>
      </trkpt>
      <trkpt lat="12.902216864749789" lon="99.682308593764901">
        <ele>107.8050537109375</ele>
        <time>2014-01-25T09:25:36Z</time>
      </trkpt>
      <trkpt lat="12.902047298848629" lon="99.682067949324846">
        <ele>108.7662353515625</ele>
        <time>2014-01-25T09:25:50Z</time>
      </trkpt>
      <trkpt lat="12.902077389881015" lon="99.682061159983277">
        <ele>117.8988037109375</ele>
        <time>2014-01-25T09:26:27Z</time>
      </trkpt>
      <trkpt lat="12.902100440114737" lon="99.682074822485447">
        <ele>109.2469482421875</ele>
        <time>2014-01-25T09:29:53Z</time>
      </trkpt>
    </trkseg>
  </trk>

  <trk>
    <name>Saturday 004</name>
    <extensions>
      <gpxx:TrackExtension>
        <gpxx:DisplayColor>Red</gpxx:DisplayColor>
      </gpxx:TrackExtension>
    </extensions>
    <trkseg>
      <trkpt lat="12.900017453357577" lon="99.680688371881843">
        <ele>100.5950927734375</ele>
        <time>2014-01-25T06:04:19Z</time>
      </trkpt>
      <trkpt lat="12.899857694283128" lon="99.679024731740355">
        <ele>106.363037109375</ele>
        <time>2014-01-25T06:05:09Z</time>
      </trkpt>
      <trkpt lat="12.899619396775961" lon="99.678309503942728">
        <ele>107.3243408203125</ele>
        <time>2014-01-25T06:05:28Z</time>
      </trkpt>
      <trkpt lat="12.898886483162642" lon="99.678104734048247">
        <ele>111.6502685546875</ele>
        <time>2014-01-25T06:05:56Z</time>
      </trkpt>
      <trkpt lat="12.89803228341043" lon="99.678107164800167">
        <ele>120.7828369140625</ele>
        <time>2014-01-25T06:06:50Z</time>
      </trkpt>
      <trkpt lat="12.897752746939659" lon="99.678768161684275">
        <ele>122.2247314453125</ele>
        <time>2014-01-25T06:07:25Z</time>
      </trkpt>
      <trkpt lat="12.897054953500628" lon="99.680506316944957">
        <ele>117.418212890625</ele>
        <time>2014-01-25T06:08:03Z</time>
      </trkpt>
      <trkpt lat="12.897148076444864" lon="99.68077763915062">
        <ele>115.9761962890625</ele>
        <time>2014-01-25T06:08:08Z</time>
      </trkpt>
      <trkpt lat="12.898647263646126" lon="99.6824692748487">
        <ele>103.47900390625</ele>
        <time>2014-01-25T06:08:38Z</time>
      </trkpt>
      <trkpt lat="12.8986313380301" lon="99.682741770520806">
        <ele>103.47900390625</ele>
        <time>2014-01-25T06:08:45Z</time>
      </trkpt>
      <trkpt lat="12.896895110607147" lon="99.685637969523668">
        <ele>115.014892578125</ele>
        <time>2014-01-25T06:10:12Z</time>
      </trkpt>
      <trkpt lat="12.896397728472948" lon="99.687171103432775">
        <ele>115.49560546875</ele>
        <time>2014-01-25T06:11:06Z</time>
      </trkpt>
      <trkpt lat="12.89572742767632" lon="99.689312679693103">
        <ele>101.556396484375</ele>
        <time>2014-01-25T06:11:50Z</time>
      </trkpt>
      <trkpt lat="12.896205531433225" lon="99.689988680183887">
        <ele>96.7498779296875</ele>
        <time>2014-01-25T06:12:08Z</time>
      </trkpt>
      <trkpt lat="12.896401584148407" lon="99.690718911588192">
        <ele>93.3851318359375</ele>
        <time>2014-01-25T06:12:23Z</time>
      </trkpt>
      <trkpt lat="12.896721689030528" lon="99.691360043361783">
        <ele>88.5787353515625</ele>
        <time>2014-01-25T06:12:39Z</time>
      </trkpt>
      <trkpt lat="12.897521154955029" lon="99.690673649311066">
        <ele>90.5013427734375</ele>
        <time>2014-01-25T06:13:04Z</time>
      </trkpt>
      <trkpt lat="12.89808458648622" lon="99.689909722656012">
        <ele>94.3465576171875</ele>
        <time>2014-01-25T06:13:50Z</time>
      </trkpt>
      <trkpt lat="12.898954041302204" lon="99.691143203526735">
        <ele>91.4625244140625</ele>
        <time>2014-01-25T06:14:43Z</time>
      </trkpt>
      <trkpt lat="12.899182280525565" lon="99.691429026424885">
        <ele>88.5787353515625</ele>
        <time>2014-01-25T06:14:54Z</time>
      </trkpt>
      <trkpt lat="12.899633478373289" lon="99.691307321190834">
        <ele>87.1365966796875</ele>
        <time>2014-01-25T06:15:06Z</time>
      </trkpt>
      <trkpt lat="12.899971520528197" lon="99.690995262935758">
        <ele>87.1365966796875</ele>
        <time>2014-01-25T06:15:20Z</time>
      </trkpt>
      <trkpt lat="12.900093644857407" lon="99.691171031445265">
        <ele>87.1365966796875</ele>
        <time>2014-01-25T06:15:28Z</time>
      </trkpt>
      <trkpt lat="12.900217277929187" lon="99.691156949847937">
        <ele>86.656005859375</ele>
        <time>2014-01-25T06:15:32Z</time>
      </trkpt>
      <trkpt lat="12.902085520327091" lon="99.6903230343014">
        <ele>86.17529296875</ele>
        <time>2014-01-25T06:16:43Z</time>
      </trkpt>
      <trkpt lat="12.902983892709017" lon="99.690131088718772">
        <ele>91.4625244140625</ele>
        <time>2014-01-25T06:18:54Z</time>
      </trkpt>
      <trkpt lat="12.903042566031218" lon="99.69023946672678">
        <ele>90.98193359375</ele>
        <time>2014-01-25T06:19:05Z</time>
      </trkpt>
      <trkpt lat="12.904069600626826" lon="99.689828166738153">
        <ele>93.8658447265625</ele>
        <time>2014-01-25T06:19:38Z</time>
      </trkpt>
      <trkpt lat="12.904918687418103" lon="99.689537901431322">
        <ele>95.3077392578125</ele>
        <time>2014-01-25T06:20:01Z</time>
      </trkpt>
      <trkpt lat="12.905365861952305" lon="99.689434971660376">
        <ele>95.7884521484375</ele>
        <time>2014-01-25T06:20:14Z</time>
      </trkpt>
      <trkpt lat="12.905621090903878" lon="99.690518165007234">
        <ele>90.98193359375</ele>
        <time>2014-01-25T06:20:39Z</time>
      </trkpt>
      <trkpt lat="12.906044879928231" lon="99.693889701738954">
        <ele>90.5013427734375</ele>
        <time>2014-01-25T06:21:54Z</time>
      </trkpt>
      <trkpt lat="12.906226431950927" lon="99.696706021204591">
        <ele>83.2913818359375</ele>
        <time>2014-01-25T06:22:54Z</time>
      </trkpt>
      <trkpt lat="12.906058626249433" lon="99.696865445002913">
        <ele>82.810791015625</ele>
        <time>2014-01-25T06:23:01Z</time>
      </trkpt>
      <trkpt lat="12.905565351247787" lon="99.696838455274701">
        <ele>84.7333984375</ele>
        <time>2014-01-25T06:23:19Z</time>
      </trkpt>
      <trkpt lat="12.905099485069513" lon="99.696799479424953">
        <ele>85.2139892578125</ele>
        <time>2014-01-25T06:23:33Z</time>
      </trkpt>
      <trkpt lat="12.903804816305637" lon="99.696778943762183">
        <ele>85.2139892578125</ele>
        <time>2014-01-25T06:24:07Z</time>
      </trkpt>
      <trkpt lat="12.902446612715721" lon="99.696789169684052">
        <ele>81.3687744140625</ele>
        <time>2014-01-25T06:24:39Z</time>
      </trkpt>
      <trkpt lat="12.900460185483098" lon="99.697128469124436">
        <ele>81.3687744140625</ele>
        <time>2014-01-25T06:25:36Z</time>
      </trkpt>
      <trkpt lat="12.898000348359346" lon="99.698284836485982">
        <ele>88.5787353515625</ele>
        <time>2014-01-25T06:27:07Z</time>
      </trkpt>
      <trkpt lat="12.897749980911613" lon="99.698713654652238">
        <ele>90.0206298828125</ele>
        <time>2014-01-25T06:27:24Z</time>
      </trkpt>
      <trkpt lat="12.897253520786762" lon="99.699319414794445">
        <ele>90.0206298828125</ele>
        <time>2014-01-25T06:27:49Z</time>
      </trkpt>
      <trkpt lat="12.896878095343709" lon="99.699337938800454">
        <ele>89.059326171875</ele>
        <time>2014-01-25T06:28:00Z</time>
      </trkpt>
      <trkpt lat="12.896515326574445" lon="99.699084721505642">
        <ele>88.5787353515625</ele>
        <time>2014-01-25T06:28:11Z</time>
      </trkpt>
      <trkpt lat="12.89609732106328" lon="99.699137276038527">
        <ele>89.059326171875</ele>
        <time>2014-01-25T06:28:26Z</time>
      </trkpt>
      <trkpt lat="12.89568392559886" lon="99.698960669338703">
        <ele>89.5399169921875</ele>
        <time>2014-01-25T06:28:41Z</time>
      </trkpt>
      <trkpt lat="12.895382177084684" lon="99.698512488976121">
        <ele>89.059326171875</ele>
        <time>2014-01-25T06:29:07Z</time>
      </trkpt>
      <trkpt lat="12.894630236551166" lon="99.697943525388837">
        <ele>83.77197265625</ele>
        <time>2014-01-25T06:29:52Z</time>
      </trkpt>
      <trkpt lat="12.893004398792982" lon="99.698127843439579">
        <ele>78.0040283203125</ele>
        <time>2014-01-25T06:30:22Z</time>
      </trkpt>
      <trkpt lat="12.892100159078836" lon="99.698517015203834">
        <ele>76.5621337890625</ele>
        <time>2014-01-25T06:30:37Z</time>
      </trkpt>
      <trkpt lat="12.891226764768362" lon="99.699357468634844">
        <ele>75.1202392578125</ele>
        <time>2014-01-25T06:30:57Z</time>
      </trkpt>
      <trkpt lat="12.890630224719644" lon="99.700096501037478">
        <ele>73.1976318359375</ele>
        <time>2014-01-25T06:31:12Z</time>
      </trkpt>
      <trkpt lat="12.89020836353302" lon="99.701530896127224">
        <ele>73.1976318359375</ele>
        <time>2014-01-25T06:31:38Z</time>
      </trkpt>
      <trkpt lat="12.890462335199118" lon="99.702807376161218">
        <ele>80.407470703125</ele>
        <time>2014-01-25T06:32:27Z</time>
      </trkpt>
      <trkpt lat="12.890467029064894" lon="99.703129157423973">
        <ele>80.88818359375</ele>
        <time>2014-01-25T06:32:35Z</time>
      </trkpt>
      <trkpt lat="12.889685081318021" lon="99.703960809856653">
        <ele>81.3687744140625</ele>
        <time>2014-01-25T06:33:03Z</time>
      </trkpt>
      <trkpt lat="12.889462960883975" lon="99.703835416585207">
        <ele>81.3687744140625</ele>
        <time>2014-01-25T06:33:27Z</time>
      </trkpt>
      <trkpt lat="12.889594221487641" lon="99.703924180939794">
        <ele>82.330078125</ele>
        <time>2014-01-25T06:33:40Z</time>
      </trkpt>
      <trkpt lat="12.892009718343616" lon="99.70567868091166">
        <ele>80.88818359375</ele>
        <time>2014-01-25T06:35:40Z</time>
      </trkpt>
      <trkpt lat="12.892151875421405" lon="99.705704161897302">
        <ele>83.77197265625</ele>
        <time>2014-01-25T06:36:08Z</time>
      </trkpt>
      <trkpt lat="12.892192443832755" lon="99.705592347308993">
        <ele>84.252685546875</ele>
        <time>2014-01-25T06:36:30Z</time>
      </trkpt>
      <trkpt lat="12.89201675914228" lon="99.704942582175136">
        <ele>84.7333984375</ele>
        <time>2014-01-25T06:36:51Z</time>
      </trkpt>
      <trkpt lat="12.892780434340239" lon="99.704706547781825">
        <ele>88.0980224609375</ele>
        <time>2014-01-25T06:37:15Z</time>
      </trkpt>
      <trkpt lat="12.895889868959785" lon="99.704059381037951">
        <ele>95.3077392578125</ele>
        <time>2014-01-25T06:38:49Z</time>
      </trkpt>
      <trkpt lat="12.902500089257956" lon="99.702671589329839">
        <ele>80.88818359375</ele>
        <time>2014-01-25T06:41:22Z</time>
      </trkpt>
      <trkpt lat="12.90376047603786" lon="99.702497078105807">
        <ele>75.1202392578125</ele>
        <time>2014-01-25T06:42:57Z</time>
      </trkpt>
      <trkpt lat="12.903790986165404" lon="99.702476793900132">
        <ele>74.6395263671875</ele>
        <time>2014-01-25T06:44:40Z</time>
      </trkpt>
      <trkpt lat="12.904688939452171" lon="99.702609647065401">
        <ele>74.1588134765625</ele>
        <time>2014-01-25T06:45:13Z</time>
      </trkpt>
      <trkpt lat="12.904893038794398" lon="99.703422859311104">
        <ele>76.5621337890625</ele>
        <time>2014-01-25T06:45:46Z</time>
      </trkpt>
      <trkpt lat="12.905128402635455" lon="99.703655289486051">
        <ele>77.5234375</ele>
        <time>2014-01-25T06:46:01Z</time>
      </trkpt>
      <trkpt lat="12.906564306467772" lon="99.703755369409919">
        <ele>70.794189453125</ele>
        <time>2014-01-25T06:46:36Z</time>
      </trkpt>
      <trkpt lat="12.906747031956911" lon="99.704305473715067">
        <ele>71.7554931640625</ele>
        <time>2014-01-25T06:46:56Z</time>
      </trkpt>
      <trkpt lat="12.906606048345566" lon="99.705289760604501">
        <ele>74.6395263671875</ele>
        <time>2014-01-25T06:47:32Z</time>
      </trkpt>
      <trkpt lat="12.906763711944222" lon="99.706300953403115">
        <ele>74.1588134765625</ele>
        <time>2014-01-25T06:47:57Z</time>
      </trkpt>
      <trkpt lat="12.906766561791301" lon="99.707733085379004">
        <ele>82.810791015625</ele>
        <time>2014-01-25T06:48:55Z</time>
      </trkpt>
      <trkpt lat="12.906942497938871" lon="99.708039779216051">
        <ele>81.3687744140625</ele>
        <time>2014-01-25T06:49:12Z</time>
      </trkpt>
      <trkpt lat="12.906814590096474" lon="99.707781113684177">
        <ele>81.849365234375</ele>
        <time>2014-01-25T06:49:51Z</time>
      </trkpt>
      <trkpt lat="12.906781062483788" lon="99.707762254402041">
        <ele>75.600830078125</ele>
        <time>2014-01-25T06:51:02Z</time>
      </trkpt>
      <trkpt lat="12.906803358346224" lon="99.707666533067822">
        <ele>77.5234375</ele>
        <time>2014-01-25T06:51:36Z</time>
      </trkpt>
      <trkpt lat="12.906953394412994" lon="99.707522531971335">
        <ele>80.407470703125</ele>
        <time>2014-01-25T06:52:11Z</time>
      </trkpt>
      <trkpt lat="12.907133353874087" lon="99.707397138699889">
        <ele>79.9266357421875</ele>
        <time>2014-01-25T06:52:24Z</time>
      </trkpt>
      <trkpt lat="12.907964419573545" lon="99.707041075453162">
        <ele>82.330078125</ele>
        <time>2014-01-25T06:52:45Z</time>
      </trkpt>
      <trkpt lat="12.912529706954956" lon="99.705274254083633">
        <ele>71.7554931640625</ele>
        <time>2014-01-25T06:55:12Z</time>
      </trkpt>
      <trkpt lat="12.912636576220393" lon="99.705197559669614">
        <ele>67.4296875</ele>
        <time>2014-01-25T07:00:48Z</time>
      </trkpt>
      <trkpt lat="12.913853209465742" lon="99.707365538924932">
        <ele>66.46826171875</ele>
        <time>2014-01-25T07:02:24Z</time>
      </trkpt>
      <trkpt lat="12.916270969435573" lon="99.706187797710299">
        <ele>73.1976318359375</ele>
        <time>2014-01-25T07:03:51Z</time>
      </trkpt>
      <trkpt lat="12.916990723460913" lon="99.705814803019166">
        <ele>71.7554931640625</ele>
        <time>2014-01-25T07:04:13Z</time>
      </trkpt>
      <trkpt lat="12.917153919115663" lon="99.705913960933685">
        <ele>71.27490234375</ele>
        <time>2014-01-25T07:04:19Z</time>
      </trkpt>
      <trkpt lat="12.917554071173072" lon="99.706812668591738">
        <ele>72.7169189453125</ele>
        <time>2014-01-25T07:04:50Z</time>
      </trkpt>
      <trkpt lat="12.920622602105141" lon="99.705033777281642">
        <ele>79.9266357421875</ele>
        <time>2014-01-25T07:12:58Z</time>
      </trkpt>
      <trkpt lat="12.917736209928989" lon="99.699010541662574">
        <ele>78.4847412109375</ele>
        <time>2014-01-25T07:15:41Z</time>
      </trkpt>
      <trkpt lat="12.920769788324833" lon="99.697608668357134">
        <ele>71.7554931640625</ele>
        <time>2014-01-25T07:17:05Z</time>
      </trkpt>
      <trkpt lat="12.924589421600103" lon="99.696319699287415">
        <ele>75.600830078125</ele>
        <time>2014-01-25T07:19:33Z</time>
      </trkpt>
      <trkpt lat="12.925486788153648" lon="99.697842271998525">
        <ele>80.407470703125</ele>
        <time>2014-01-25T07:20:26Z</time>
      </trkpt>
      <trkpt lat="12.92916870675981" lon="99.704498844221234">
        <ele>72.7169189453125</ele>
        <time>2014-01-25T07:28:19Z</time>
      </trkpt>
      <trkpt lat="12.929724426940084" lon="99.704035492613912">
        <ele>73.67822265625</ele>
        <time>2014-01-25T07:28:43Z</time>
      </trkpt>
      <trkpt lat="12.931245407089591" lon="99.704709649085999">
        <ele>77.5234375</ele>
        <time>2014-01-25T07:29:32Z</time>
      </trkpt>
      <trkpt lat="12.931640446186066" lon="99.704104391857982">
        <ele>80.407470703125</ele>
        <time>2014-01-25T07:30:00Z</time>
      </trkpt>
      <trkpt lat="12.932149646803737" lon="99.704006826505065">
        <ele>84.7333984375</ele>
        <time>2014-01-25T07:30:30Z</time>
      </trkpt>
      <trkpt lat="12.932675527408719" lon="99.703790321946144">
        <ele>82.810791015625</ele>
        <time>2014-01-25T07:30:46Z</time>
      </trkpt>
      <trkpt lat="12.933080708608031" lon="99.703831309452653">
        <ele>82.330078125</ele>
        <time>2014-01-25T07:30:59Z</time>
      </trkpt>
      <trkpt lat="12.93351111933589" lon="99.703542552888393">
        <ele>86.656005859375</ele>
        <time>2014-01-25T07:31:38Z</time>
      </trkpt>
      <trkpt lat="12.932958416640759" lon="99.703859556466341">
        <ele>86.656005859375</ele>
        <time>2014-01-25T07:32:00Z</time>
      </trkpt>
      <trkpt lat="12.931672632694244" lon="99.70411017537117">
        <ele>81.3687744140625</ele>
        <time>2014-01-25T07:33:07Z</time>
      </trkpt>
      <trkpt lat="12.93132696300745" lon="99.704596158117056">
        <ele>80.407470703125</ele>
        <time>2014-01-25T07:33:20Z</time>
      </trkpt>
      <trkpt lat="12.931142561137676" lon="99.704676372930408">
        <ele>78.9654541015625</ele>
        <time>2014-01-25T07:33:25Z</time>
      </trkpt>
      <trkpt lat="12.930589104071259" lon="99.704486858099699">
        <ele>76.0814208984375</ele>
        <time>2014-01-25T07:33:39Z</time>
      </trkpt>
      <trkpt lat="12.929885359480977" lon="99.705435102805495">
        <ele>74.1588134765625</ele>
        <time>2014-01-25T07:34:11Z</time>
      </trkpt>
      <trkpt lat="12.930503441020846" lon="99.707209132611752">
        <ele>80.407470703125</ele>
        <time>2014-01-25T07:35:17Z</time>
      </trkpt>
      <trkpt lat="12.930895211175084" lon="99.710054453462362">
        <ele>70.794189453125</ele>
        <time>2014-01-25T07:36:46Z</time>
      </trkpt>
      <trkpt lat="12.93097123503685" lon="99.710401799529791">
        <ele>69.352294921875</ele>
        <time>2014-01-25T07:36:55Z</time>
      </trkpt>
      <trkpt lat="12.930602431297302" lon="99.710529623553157">
        <ele>69.352294921875</ele>
        <time>2014-01-25T07:37:10Z</time>
      </trkpt>
      <trkpt lat="12.930572256445885" lon="99.710673289373517">
        <ele>69.352294921875</ele>
        <time>2014-01-25T07:37:15Z</time>
      </trkpt>
      <trkpt lat="12.930450215935707" lon="99.710856433957815">
        <ele>68.390869140625</ele>
        <time>2014-01-25T07:37:22Z</time>
      </trkpt>
      <trkpt lat="12.929847305640578" lon="99.710926758125424">
        <ele>67.4296875</ele>
        <time>2014-01-25T07:37:38Z</time>
      </trkpt>
      <trkpt lat="12.929788716137409" lon="99.711922444403172">
        <ele>74.1588134765625</ele>
        <time>2014-01-25T07:41:27Z</time>
      </trkpt>
      <trkpt lat="12.929764660075307" lon="99.712402392178774">
        <ele>71.7554931640625</ele>
        <time>2014-01-25T07:43:08Z</time>
      </trkpt>
      <trkpt lat="12.929408429190516" lon="99.712497275322676">
        <ele>69.8328857421875</ele>
        <time>2014-01-25T07:43:21Z</time>
      </trkpt>
      <trkpt lat="12.929324107244611" lon="99.712642030790448">
        <ele>69.352294921875</ele>
        <time>2014-01-25T07:43:27Z</time>
      </trkpt>
      <trkpt lat="12.929412620142102" lon="99.712709588930011">
        <ele>67.4296875</ele>
        <time>2014-01-25T07:43:33Z</time>
      </trkpt>
      <trkpt lat="12.931668693199754" lon="99.712956268340349">
        <ele>63.5843505859375</ele>
        <time>2014-01-25T07:45:13Z</time>
      </trkpt>
      <trkpt lat="12.932033976539969" lon="99.713056683540344">
        <ele>59.7391357421875</ele>
        <time>2014-01-25T07:45:27Z</time>
      </trkpt>
      <trkpt lat="12.933006947860122" lon="99.712576903402805">
        <ele>65.0263671875</ele>
        <time>2014-01-25T07:46:01Z</time>
      </trkpt>
      <trkpt lat="12.93469900265336" lon="99.712465004995465">
        <ele>69.352294921875</ele>
        <time>2014-01-25T07:46:52Z</time>
      </trkpt>
      <trkpt lat="12.93609693646431" lon="99.71222092397511">
        <ele>69.8328857421875</ele>
        <time>2014-01-25T07:47:30Z</time>
      </trkpt>
      <trkpt lat="12.935860818251967" lon="99.710575891658664">
        <ele>77.0428466796875</ele>
        <time>2014-01-25T07:48:34Z</time>
      </trkpt>
      <trkpt lat="12.936286870390177" lon="99.710430549457669">
        <ele>77.0428466796875</ele>
        <time>2014-01-25T07:48:49Z</time>
      </trkpt>
      <trkpt lat="12.937369141727686" lon="99.710389729589224">
        <ele>78.9654541015625</ele>
        <time>2014-01-25T07:49:22Z</time>
      </trkpt>
      <trkpt lat="12.939699478447437" lon="99.7111508063972">
        <ele>74.6395263671875</ele>
        <time>2014-01-25T07:50:55Z</time>
      </trkpt>
      <trkpt lat="12.940088985487819" lon="99.711161199957132">
        <ele>84.252685546875</ele>
        <time>2014-01-25T07:54:06Z</time>
      </trkpt>
      <trkpt lat="12.940114550292492" lon="99.7111508063972">
        <ele>77.5234375</ele>
        <time>2014-01-25T07:54:57Z</time>
      </trkpt>
      <trkpt lat="12.941994946449995" lon="99.706782409921288">
        <ele>82.330078125</ele>
        <time>2014-01-25T07:57:00Z</time>
      </trkpt>
      <trkpt lat="12.942303903400898" lon="99.704937469214201">
        <ele>81.849365234375</ele>
        <time>2014-01-25T07:57:38Z</time>
      </trkpt>
      <trkpt lat="12.945152577012777" lon="99.704933948814869">
        <ele>74.6395263671875</ele>
        <time>2014-01-25T07:58:19Z</time>
      </trkpt>
      <trkpt lat="12.948080543428659" lon="99.703696863725781">
        <ele>80.88818359375</ele>
        <time>2014-01-25T07:59:30Z</time>
      </trkpt>
      <trkpt lat="12.949031973257661" lon="99.703136617317796">
        <ele>80.88818359375</ele>
        <time>2014-01-25T07:59:51Z</time>
      </trkpt>
      <trkpt lat="12.949911067262292" lon="99.702397333458066">
        <ele>84.252685546875</ele>
        <time>2014-01-25T08:00:25Z</time>
      </trkpt>
      <trkpt lat="12.949941661208868" lon="99.702270347625017">
        <ele>87.6171875</ele>
        <time>2014-01-25T08:01:27Z</time>
      </trkpt>
      <trkpt lat="12.9499451816082" lon="99.702255008742213">
        <ele>86.656005859375</ele>
        <time>2014-01-25T08:02:43Z</time>
      </trkpt>
      <trkpt lat="12.950994344428182" lon="99.703313978388906">
        <ele>90.5013427734375</ele>
        <time>2014-01-25T08:04:29Z</time>
      </trkpt>
      <trkpt lat="12.952081728726625" lon="99.703656295314431">
        <ele>96.269287109375</ele>
        <time>2014-01-25T08:05:19Z</time>
      </trkpt>
      <trkpt lat="12.953817117959261" lon="99.703844888135791">
        <ele>90.98193359375</ele>
        <time>2014-01-25T08:06:02Z</time>
      </trkpt>
      <trkpt lat="12.954445006325841" lon="99.703982938081026">
        <ele>89.5399169921875</ele>
        <time>2014-01-25T08:06:18Z</time>
      </trkpt>
      <trkpt lat="12.95448062941432" lon="99.704145798459649">
        <ele>89.5399169921875</ele>
        <time>2014-01-25T08:06:22Z</time>
      </trkpt>
      <trkpt lat="12.954416759312153" lon="99.705945560708642">
        <ele>83.2913818359375</ele>
        <time>2014-01-25T08:06:54Z</time>
      </trkpt>
      <trkpt lat="12.954704845324159" lon="99.706915179267526">
        <ele>82.810791015625</ele>
        <time>2014-01-25T08:07:17Z</time>
      </trkpt>
      <trkpt lat="12.954710545018315" lon="99.707647673785686">
        <ele>80.88818359375</ele>
        <time>2014-01-25T08:07:34Z</time>
      </trkpt>
      <trkpt lat="12.954657655209303" lon="99.707967024296522">
        <ele>78.9654541015625</ele>
        <time>2014-01-25T08:07:43Z</time>
      </trkpt>
      <trkpt lat="12.95659152790904" lon="99.708384107798338">
        <ele>80.88818359375</ele>
        <time>2014-01-25T08:08:32Z</time>
      </trkpt>
      <trkpt lat="12.958951368927956" lon="99.708681749179959">
        <ele>72.7169189453125</ele>
        <time>2014-01-25T08:09:20Z</time>
      </trkpt>
      <trkpt lat="12.959120851010084" lon="99.708984000608325">
        <ele>74.1588134765625</ele>
        <time>2014-01-25T08:09:28Z</time>
      </trkpt>
      <trkpt lat="12.959234174340963" lon="99.709332771599293">
        <ele>70.794189453125</ele>
        <time>2014-01-25T08:09:35Z</time>
      </trkpt>
      <trkpt lat="12.959332074970007" lon="99.710061578080058">
        <ele>71.7554931640625</ele>
        <time>2014-01-25T08:09:48Z</time>
      </trkpt>
      <trkpt lat="12.959647066891193" lon="99.710352849215269">
        <ele>75.1202392578125</ele>
        <time>2014-01-25T08:10:02Z</time>
      </trkpt>
      <trkpt lat="12.960687261074781" lon="99.710870431736112">
        <ele>75.1202392578125</ele>
        <time>2014-01-25T08:10:31Z</time>
      </trkpt>
      <trkpt lat="12.961442722007632" lon="99.710959363728762">
        <ele>77.0428466796875</ele>
        <time>2014-01-25T08:10:54Z</time>
      </trkpt>
      <trkpt lat="12.962196590378881" lon="99.711259184405208">
        <ele>79.446044921875</ele>
        <time>2014-01-25T08:12:11Z</time>
      </trkpt>
      <trkpt lat="12.962170522660017" lon="99.711290029808879">
        <ele>72.7169189453125</ele>
        <time>2014-01-25T08:20:12Z</time>
      </trkpt>
      <trkpt lat="12.962586432695389" lon="99.710580334067345">
        <ele>69.352294921875</ele>
        <time>2014-01-25T08:23:28Z</time>
      </trkpt>
      <trkpt lat="12.963638110086322" lon="99.709648098796606">
        <ele>73.67822265625</ele>
        <time>2014-01-25T08:24:14Z</time>
      </trkpt>
      <trkpt lat="12.96406508423388" lon="99.709305111318827">
        <ele>74.6395263671875</ele>
        <time>2014-01-25T08:24:31Z</time>
      </trkpt>
      <trkpt lat="12.964832950383425" lon="99.708978636190295">
        <ele>80.88818359375</ele>
        <time>2014-01-25T08:25:30Z</time>
      </trkpt>
      <trkpt lat="12.964047063142061" lon="99.70931701362133">
        <ele>81.3687744140625</ele>
        <time>2014-01-25T08:25:55Z</time>
      </trkpt>
      <trkpt lat="12.962867226451635" lon="99.710361063480377">
        <ele>80.88818359375</ele>
        <time>2014-01-25T08:26:33Z</time>
      </trkpt>
      <trkpt lat="12.962081423029304" lon="99.71016232855618">
        <ele>76.5621337890625</ele>
        <time>2014-01-25T08:27:14Z</time>
      </trkpt>
      <trkpt lat="12.962059378623962" lon="99.710179511457682">
        <ele>81.849365234375</ele>
        <time>2014-01-25T08:27:35Z</time>
      </trkpt>
      <trkpt lat="12.962796734645963" lon="99.710338432341814">
        <ele>83.2913818359375</ele>
        <time>2014-01-25T08:28:04Z</time>
      </trkpt>
      <trkpt lat="12.962177814915776" lon="99.711262201890349">
        <ele>81.849365234375</ele>
        <time>2014-01-25T08:28:40Z</time>
      </trkpt>
      <trkpt lat="12.961125466972589" lon="99.710879316553473">
        <ele>75.600830078125</ele>
        <time>2014-01-25T08:29:12Z</time>
      </trkpt>
      <trkpt lat="12.960716765373945" lon="99.710877137258649">
        <ele>74.6395263671875</ele>
        <time>2014-01-25T08:29:24Z</time>
      </trkpt>
      <trkpt lat="12.960174540057778" lon="99.710496766492724">
        <ele>74.1588134765625</ele>
        <time>2014-01-25T08:29:52Z</time>
      </trkpt>
      <trkpt lat="12.959433663636446" lon="99.710204908624291">
        <ele>69.8328857421875</ele>
        <time>2014-01-25T08:30:12Z</time>
      </trkpt>
      <trkpt lat="12.959059830754995" lon="99.708784846588969">
        <ele>71.7554931640625</ele>
        <time>2014-01-25T08:30:47Z</time>
      </trkpt>
      <trkpt lat="12.959432238712907" lon="99.707916816696525">
        <ele>75.1202392578125</ele>
        <time>2014-01-25T08:31:22Z</time>
      </trkpt>
      <trkpt lat="12.959415055811405" lon="99.707588413730264">
        <ele>75.1202392578125</ele>
        <time>2014-01-25T08:31:33Z</time>
      </trkpt>
      <trkpt lat="12.959799952805042" lon="99.706537574529648">
        <ele>78.0040283203125</ele>
        <time>2014-01-25T08:32:06Z</time>
      </trkpt>
      <trkpt lat="12.959922412410378" lon="99.705987134948373">
        <ele>78.9654541015625</ele>
        <time>2014-01-25T08:32:22Z</time>
      </trkpt>
      <trkpt lat="12.960054008290172" lon="99.703848576173186">
        <ele>82.330078125</ele>
        <time>2014-01-25T08:33:20Z</time>
      </trkpt>
      <trkpt lat="12.96113820746541" lon="99.70201930962503">
        <ele>90.0206298828125</ele>
        <time>2014-01-25T08:34:28Z</time>
      </trkpt>
      <trkpt lat="12.962010931223631" lon="99.700593883171678">
        <ele>90.5013427734375</ele>
        <time>2014-01-25T08:35:15Z</time>
      </trkpt>
      <trkpt lat="12.962114280089736" lon="99.698956981301308">
        <ele>88.0980224609375</ele>
        <time>2014-01-25T08:35:56Z</time>
      </trkpt>
      <trkpt lat="12.962330784648657" lon="99.698905097320676">
        <ele>88.5787353515625</ele>
        <time>2014-01-25T08:36:10Z</time>
      </trkpt>
      <trkpt lat="12.962131546810269" lon="99.695490309968591">
        <ele>96.269287109375</ele>
        <time>2014-01-25T08:37:59Z</time>
      </trkpt>
      <trkpt lat="12.962494902312756" lon="99.694292368367314">
        <ele>102.5177001953125</ele>
        <time>2014-01-25T08:38:59Z</time>
      </trkpt>
      <trkpt lat="12.962419213727117" lon="99.693701947107911">
        <ele>104.4404296875</ele>
        <time>2014-01-25T08:39:15Z</time>
      </trkpt>
      <trkpt lat="12.962518874555826" lon="99.692576006054878">
        <ele>104.4404296875</ele>
        <time>2014-01-25T08:39:48Z</time>
      </trkpt>
      <trkpt lat="12.962385015562177" lon="99.692136961966753">
        <ele>104.9210205078125</ele>
        <time>2014-01-25T08:40:01Z</time>
      </trkpt>
      <trkpt lat="12.962120901793242" lon="99.690996017307043">
        <ele>102.037109375</ele>
        <time>2014-01-25T08:40:28Z</time>
      </trkpt>
      <trkpt lat="12.961756205186248" lon="99.69062453135848">
        <ele>100.5950927734375</ele>
        <time>2014-01-25T08:40:37Z</time>
      </trkpt>
      <trkpt lat="12.961340630427003" lon="99.689589869230986">
        <ele>102.998291015625</ele>
        <time>2014-01-25T08:41:09Z</time>
      </trkpt>
      <trkpt lat="12.961273407563567" lon="99.688699040561914">
        <ele>104.4404296875</ele>
        <time>2014-01-25T08:41:36Z</time>
      </trkpt>
      <trkpt lat="12.961660232394934" lon="99.688027063384652">
        <ele>109.2469482421875</ele>
        <time>2014-01-25T08:41:59Z</time>
      </trkpt>
      <trkpt lat="12.962004560977221" lon="99.687357265502214">
        <ele>107.3243408203125</ele>
        <time>2014-01-25T08:42:24Z</time>
      </trkpt>
      <trkpt lat="12.96188285574317" lon="99.687304124236107">
        <ele>108.7662353515625</ele>
        <time>2014-01-25T08:42:30Z</time>
      </trkpt>
      <trkpt lat="12.960268501192331" lon="99.687933102250099">
        <ele>114.5341796875</ele>
        <time>2014-01-25T08:49:36Z</time>
      </trkpt>
      <trkpt lat="12.960071107372642" lon="99.687593718990684">
        <ele>114.5341796875</ele>
        <time>2014-01-25T08:50:06Z</time>
      </trkpt>
      <trkpt lat="12.95965762808919" lon="99.685919350013137">
        <ele>119.8214111328125</ele>
        <time>2014-01-25T08:51:06Z</time>
      </trkpt>
      <trkpt lat="12.958380477502942" lon="99.684068374335766">
        <ele>116.456787109375</ele>
        <time>2014-01-25T08:52:06Z</time>
      </trkpt>
      <trkpt lat="12.95591477304697" lon="99.684617221355438">
        <ele>118.860107421875</ele>
        <time>2014-01-25T08:53:36Z</time>
      </trkpt>
      <trkpt lat="12.9519466124475" lon="99.684052113443613">
        <ele>130.39599609375</ele>
        <time>2014-01-25T08:55:06Z</time>
      </trkpt>
      <trkpt lat="12.950579188764095" lon="99.683434786275029">
        <ele>129.4346923828125</ele>
        <time>2014-01-25T08:55:36Z</time>
      </trkpt>
      <trkpt lat="12.950475504621863" lon="99.682352850213647">
        <ele>129.915283203125</ele>
        <time>2014-01-25T08:56:06Z</time>
      </trkpt>
      <trkpt lat="12.949388958513737" lon="99.681746000424027">
        <ele>139.5284423828125</ele>
        <time>2014-01-25T08:58:06Z</time>
      </trkpt>
      <trkpt lat="12.948956452310085" lon="99.683102276176214">
        <ele>136.1639404296875</ele>
        <time>2014-01-25T08:59:06Z</time>
      </trkpt>
      <trkpt lat="12.94701830483973" lon="99.682610677555203">
        <ele>123.1861572265625</ele>
        <time>2014-01-25T09:00:06Z</time>
      </trkpt>
      <trkpt lat="12.946231160312891" lon="99.682051185518503">
        <ele>120.3021240234375</ele>
        <time>2014-01-25T09:01:36Z</time>
      </trkpt>
      <trkpt lat="12.94581382535398" lon="99.6814348641783">
        <ele>115.49560546875</ele>
        <time>2014-01-25T09:04:06Z</time>
      </trkpt>
      <trkpt lat="12.946599209681153" lon="99.680533558130264">
        <ele>115.49560546875</ele>
        <time>2014-01-25T09:04:36Z</time>
      </trkpt>
      <trkpt lat="12.947904272004962" lon="99.677236452698708">
        <ele>120.7828369140625</ele>
        <time>2014-01-25T09:06:36Z</time>
      </trkpt>
      <trkpt lat="12.94832588173449" lon="99.677958805114031">
        <ele>120.7828369140625</ele>
        <time>2014-01-25T09:07:06Z</time>
      </trkpt>
      <trkpt lat="12.948958883062005" lon="99.67837848700583">
        <ele>132.318603515625</ele>
        <time>2014-01-25T09:08:06Z</time>
      </trkpt>
      <trkpt lat="12.951984498649836" lon="99.677021624520421">
        <ele>130.876708984375</ele>
        <time>2014-01-25T09:09:36Z</time>
      </trkpt>
      <trkpt lat="12.952475091442466" lon="99.677193202078342">
        <ele>134.2412109375</ele>
        <time>2014-01-25T09:10:06Z</time>
      </trkpt>
      <trkpt lat="12.95325955376029" lon="99.676994383335114">
        <ele>136.6446533203125</ele>
        <time>2014-01-25T09:10:36Z</time>
      </trkpt>
      <trkpt lat="12.954202014952898" lon="99.676192319020629">
        <ele>134.2412109375</ele>
        <time>2014-01-25T09:11:36Z</time>
      </trkpt>
      <trkpt lat="12.954279966652393" lon="99.675438283011317">
        <ele>133.2799072265625</ele>
        <time>2014-01-25T09:12:06Z</time>
      </trkpt>
      <trkpt lat="12.95333088375628" lon="99.675476923584938">
        <ele>137.6058349609375</ele>
        <time>2014-01-25T09:12:36Z</time>
      </trkpt>
      <trkpt lat="12.952186586335301" lon="99.674808634445071">
        <ele>148.180419921875</ele>
        <time>2014-01-25T09:13:36Z</time>
      </trkpt>
      <trkpt lat="12.952024228870869" lon="99.674724144861102">
        <ele>148.180419921875</ele>
        <time>2014-01-25T09:14:06Z</time>
      </trkpt>
      <trkpt lat="12.951447889208794" lon="99.672363549470901">
        <ele>143.8543701171875</ele>
        <time>2014-01-25T09:15:36Z</time>
      </trkpt>
      <trkpt lat="12.952557150274515" lon="99.671152029186487">
        <ele>142.89306640625</ele>
        <time>2014-01-25T09:16:36Z</time>
      </trkpt>
      <trkpt lat="12.952656308189034" lon="99.670921275392175">
        <ele>140.970458984375</ele>
        <time>2014-01-25T09:17:06Z</time>
      </trkpt>
      <trkpt lat="12.952855629846454" lon="99.67080133035779">
        <ele>135.2025146484375</ele>
        <time>2014-01-25T09:18:36Z</time>
      </trkpt>
      <trkpt lat="12.953342450782657" lon="99.670918174088001">
        <ele>132.79931640625</ele>
        <time>2014-01-25T09:19:36Z</time>
      </trkpt>
      <trkpt lat="12.953897332772613" lon="99.670274360105395">
        <ele>141.9317626953125</ele>
        <time>2014-01-25T09:20:36Z</time>
      </trkpt>
      <trkpt lat="12.954052817076445" lon="99.670301852747798">
        <ele>148.180419921875</ele>
        <time>2014-01-25T09:21:06Z</time>
      </trkpt>
      <trkpt lat="12.954701157286763" lon="99.669151101261377">
        <ele>149.622314453125</ele>
        <time>2014-01-25T09:22:06Z</time>
      </trkpt>
      <trkpt lat="12.954955799505115" lon="99.667081693187356">
        <ele>151.544921875</ele>
        <time>2014-01-25T09:23:06Z</time>
      </trkpt>
      <trkpt lat="12.956432607024908" lon="99.666149038821459">
        <ele>147.218994140625</ele>
        <time>2014-01-25T09:24:06Z</time>
      </trkpt>
      <trkpt lat="12.957416726276278" lon="99.666654970496893">
        <ele>143.3736572265625</ele>
        <time>2014-01-25T09:24:36Z</time>
      </trkpt>
      <trkpt lat="12.958695720881224" lon="99.668446015566587">
        <ele>158.274169921875</ele>
        <time>2014-01-25T09:26:36Z</time>
      </trkpt>
      <trkpt lat="12.957391832023859" lon="99.666267642751336">
        <ele>146.2578125</ele>
        <time>2014-01-25T09:29:36Z</time>
      </trkpt>
      <trkpt lat="12.955833971500397" lon="99.666377361863852">
        <ele>140.0091552734375</ele>
        <time>2014-01-25T09:32:06Z</time>
      </trkpt>
      <trkpt lat="12.952349446713924" lon="99.666116600856185">
        <ele>128.9541015625</ele>
        <time>2014-01-25T09:33:06Z</time>
      </trkpt>
      <trkpt lat="12.951096687465906" lon="99.665867742151022">
        <ele>123.666748046875</ele>
        <time>2014-01-25T09:33:36Z</time>
      </trkpt>
      <trkpt lat="12.951155612245202" lon="99.666174435988069">
        <ele>127.9925537109375</ele>
        <time>2014-01-25T09:36:36Z</time>
      </trkpt>
      <trkpt lat="12.950709778815508" lon="99.667988950386643">
        <ele>119.8214111328125</ele>
        <time>2014-01-25T09:37:06Z</time>
      </trkpt>
      <trkpt lat="12.949261302128434" lon="99.66941362246871">
        <ele>117.418212890625</ele>
        <time>2014-01-25T09:37:36Z</time>
      </trkpt>
      <trkpt lat="12.945267157629132" lon="99.670577365905046">
        <ele>112.1309814453125</ele>
        <time>2014-01-25T09:38:36Z</time>
      </trkpt>
      <trkpt lat="12.940997499972582" lon="99.671173738315701">
        <ele>112.611572265625</ele>
        <time>2014-01-25T09:40:06Z</time>
      </trkpt>
      <trkpt lat="12.939151218160987" lon="99.672042019665241">
        <ele>114.0535888671875</ele>
        <time>2014-01-25T09:40:36Z</time>
      </trkpt>
      <trkpt lat="12.936534890905023" lon="99.672324322164059">
        <ele>106.363037109375</ele>
        <time>2014-01-25T09:41:06Z</time>
      </trkpt>
      <trkpt lat="12.934308489784598" lon="99.673364432528615">
        <ele>98.6724853515625</ele>
        <time>2014-01-25T09:41:36Z</time>
      </trkpt>
      <trkpt lat="12.932523731142282" lon="99.673418998718262">
        <ele>100.114501953125</ele>
        <time>2014-01-25T09:42:06Z</time>
      </trkpt>
      <trkpt lat="12.931485716253519" lon="99.67295665293932">
        <ele>102.998291015625</ele>
        <time>2014-01-25T09:42:36Z</time>
      </trkpt>
      <trkpt lat="12.930990932509303" lon="99.672387605533004">
        <ele>110.208251953125</ele>
        <time>2014-01-25T09:43:06Z</time>
      </trkpt>
      <trkpt lat="12.930061211809516" lon="99.671476576477289">
        <ele>111.6502685546875</ele>
        <time>2014-01-25T09:43:36Z</time>
      </trkpt>
      <trkpt lat="12.929814113304019" lon="99.669438265264034">
        <ele>115.9761962890625</ele>
        <time>2014-01-25T09:44:06Z</time>
      </trkpt>
      <trkpt lat="12.930955979973078" lon="99.667591229081154">
        <ele>117.8988037109375</ele>
        <time>2014-01-25T09:44:36Z</time>
      </trkpt>
      <trkpt lat="12.928892690688372" lon="99.664665274322033">
        <ele>117.8988037109375</ele>
        <time>2014-01-25T09:45:36Z</time>
      </trkpt>
      <trkpt lat="12.927532307803631" lon="99.663320817053318">
        <ele>120.7828369140625</ele>
        <time>2014-01-25T09:46:36Z</time>
      </trkpt>
      <trkpt lat="12.923643188551068" lon="99.662953270599246">
        <ele>108.28564453125</ele>
        <time>2014-01-25T09:47:36Z</time>
      </trkpt>
      <trkpt lat="12.924593780189753" lon="99.661949118599296">
        <ele>101.07568359375</ele>
        <time>2014-01-25T09:48:36Z</time>
      </trkpt>
      <trkpt lat="12.926048962399364" lon="99.661989519372582">
        <ele>107.3243408203125</ele>
        <time>2014-01-25T09:49:36Z</time>
      </trkpt>
      <trkpt lat="12.927028639242053" lon="99.662741627544165">
        <ele>116.9375</ele>
        <time>2014-01-25T09:50:36Z</time>
      </trkpt>
      <trkpt lat="12.927548652514815" lon="99.663339592516422">
        <ele>120.7828369140625</ele>
        <time>2014-01-25T09:51:06Z</time>
      </trkpt>
      <trkpt lat="12.929889634251595" lon="99.660816807299852">
        <ele>126.5506591796875</ele>
        <time>2014-01-25T09:53:06Z</time>
      </trkpt>
      <trkpt lat="12.931448332965374" lon="99.657633360475302">
        <ele>129.915283203125</ele>
        <time>2014-01-25T09:56:36Z</time>
      </trkpt>
      <trkpt lat="12.930823210626841" lon="99.657012429088354">
        <ele>131.837890625</ele>
        <time>2014-01-25T09:57:06Z</time>
      </trkpt>
      <trkpt lat="12.930401936173439" lon="99.656793912872672">
        <ele>136.6446533203125</ele>
        <time>2014-01-25T09:57:36Z</time>
      </trkpt>
      <trkpt lat="12.929889969527721" lon="99.657348711043596">
        <ele>143.8543701171875</ele>
        <time>2014-01-25T09:58:06Z</time>
      </trkpt>
      <trkpt lat="12.929344391450286" lon="99.655172936618328">
        <ele>144.335205078125</ele>
        <time>2014-01-25T09:59:36Z</time>
      </trkpt>
      <trkpt lat="12.93011175468564" lon="99.653350124135613">
        <ele>144.335205078125</ele>
        <time>2014-01-25T10:00:36Z</time>
      </trkpt>
      <trkpt lat="12.929494259878993" lon="99.653053404763341">
        <ele>144.335205078125</ele>
        <time>2014-01-25T10:01:06Z</time>
      </trkpt>
      <trkpt lat="12.929008947685361" lon="99.652355862781405">
        <ele>144.335205078125</ele>
        <time>2014-01-25T10:01:36Z</time>
      </trkpt>
      <trkpt lat="12.928496981039643" lon="99.651578022167087">
        <ele>143.8543701171875</ele>
        <time>2014-01-25T10:02:06Z</time>
      </trkpt>
      <trkpt lat="12.926921686157584" lon="99.651143336668611">
        <ele>139.0478515625</ele>
        <time>2014-01-25T10:02:36Z</time>
      </trkpt>
      <trkpt lat="12.924671731889248" lon="99.649793934077024">
        <ele>117.418212890625</ele>
        <time>2014-01-25T10:03:36Z</time>
      </trkpt>
      <trkpt lat="12.923945188522339" lon="99.647762579843402">
        <ele>108.7662353515625</ele>
        <time>2014-01-25T10:05:06Z</time>
      </trkpt>
      <trkpt lat="12.923286957666278" lon="99.644999653100967">
        <ele>97.711181640625</ele>
        <time>2014-01-25T10:06:06Z</time>
      </trkpt>
      <trkpt lat="12.921586353331804" lon="99.645177097991109">
        <ele>95.7884521484375</ele>
        <time>2014-01-25T10:06:36Z</time>
      </trkpt>
      <trkpt lat="12.919999826699495" lon="99.645009124651551">
        <ele>98.19189453125</ele>
        <time>2014-01-25T10:07:06Z</time>
      </trkpt>
      <trkpt lat="12.919778460636735" lon="99.644977608695626">
        <ele>93.8658447265625</ele>
        <time>2014-01-25T10:07:36Z</time>
      </trkpt>
      <trkpt lat="12.919034818187356" lon="99.644212676212192">
        <ele>87.6171875</ele>
        <time>2014-01-25T10:08:06Z</time>
      </trkpt>
      <trkpt lat="12.920975312590599" lon="99.63870232924819">
        <ele>78.0040283203125</ele>
        <time>2014-01-25T10:09:36Z</time>
      </trkpt>
      <trkpt lat="12.919934615492821" lon="99.634293951094151">
        <ele>77.0428466796875</ele>
        <time>2014-01-25T10:11:06Z</time>
      </trkpt>
      <trkpt lat="12.920194370672107" lon="99.633745942264795">
        <ele>81.3687744140625</ele>
        <time>2014-01-25T10:11:36Z</time>
      </trkpt>
      <trkpt lat="12.920222282409668" lon="99.633234394714236">
        <ele>86.656005859375</ele>
        <time>2014-01-25T10:12:06Z</time>
      </trkpt>
      <trkpt lat="12.920038299635053" lon="99.632379272952676">
        <ele>102.5177001953125</ele>
        <time>2014-01-25T10:13:06Z</time>
      </trkpt>
      <trkpt lat="12.919725822284818" lon="99.631545692682266">
        <ele>108.28564453125</ele>
        <time>2014-01-25T10:14:06Z</time>
      </trkpt>
      <trkpt lat="12.919725822284818" lon="99.631545692682266">
        <ele>122.2247314453125</ele>
        <time>2014-01-25T10:14:36Z</time>
      </trkpt>
      <trkpt lat="12.919960683211684" lon="99.63195045478642">
        <ele>112.611572265625</ele>
        <time>2014-01-25T10:18:36Z</time>
      </trkpt>
      <trkpt lat="12.917393138632178" lon="99.635177655145526">
        <ele>90.98193359375</ele>
        <time>2014-01-25T10:19:36Z</time>
      </trkpt>
      <trkpt lat="12.915864530950785" lon="99.636384397745132">
        <ele>75.600830078125</ele>
        <time>2014-01-25T10:20:06Z</time>
      </trkpt>
      <trkpt lat="12.914914609864354" lon="99.637803034856915">
        <ele>76.5621337890625</ele>
        <time>2014-01-25T10:20:36Z</time>
      </trkpt>
      <trkpt lat="12.914431393146515" lon="99.638908943161368">
        <ele>78.4847412109375</ele>
        <time>2014-01-25T10:21:06Z</time>
      </trkpt>
      <trkpt lat="12.913280390202999" lon="99.640283491462469">
        <ele>77.0428466796875</ele>
        <time>2014-01-25T10:21:36Z</time>
      </trkpt>
      <trkpt lat="12.911244090646505" lon="99.641510099172592">
        <ele>69.352294921875</ele>
        <time>2014-01-25T10:22:06Z</time>
      </trkpt>
      <trkpt lat="12.909905333071947" lon="99.642708711326122">
        <ele>71.7554931640625</ele>
        <time>2014-01-25T10:22:36Z</time>
      </trkpt>
      <trkpt lat="12.908075982704759" lon="99.645394273102283">
        <ele>76.0814208984375</ele>
        <time>2014-01-25T10:23:36Z</time>
      </trkpt>
      <trkpt lat="12.90700938552618" lon="99.646921204403043">
        <ele>73.67822265625</ele>
        <time>2014-01-25T10:24:06Z</time>
      </trkpt>
      <trkpt lat="12.906481828540564" lon="99.648681739345193">
        <ele>71.7554931640625</ele>
        <time>2014-01-25T10:24:36Z</time>
      </trkpt>
      <trkpt lat="12.906404295936227" lon="99.650562889873981">
        <ele>68.390869140625</ele>
        <time>2014-01-25T10:25:06Z</time>
      </trkpt>
      <trkpt lat="12.90835895575583" lon="99.653895786032081">
        <ele>66.46826171875</ele>
        <time>2014-01-25T10:26:06Z</time>
      </trkpt>
      <trkpt lat="12.910596420988441" lon="99.659117292612791">
        <ele>79.446044921875</ele>
        <time>2014-01-25T10:28:06Z</time>
      </trkpt>
      <trkpt lat="12.911959234625101" lon="99.662757804617286">
        <ele>76.5621337890625</ele>
        <time>2014-01-25T10:29:06Z</time>
      </trkpt>
      <trkpt lat="12.911810455843806" lon="99.664724702015519">
        <ele>75.600830078125</ele>
        <time>2014-01-25T10:29:36Z</time>
      </trkpt>
      <trkpt lat="12.911280803382397" lon="99.666412817314267">
        <ele>76.5621337890625</ele>
        <time>2014-01-25T10:30:06Z</time>
      </trkpt>
      <trkpt lat="12.911051390692592" lon="99.668119791895151">
        <ele>77.0428466796875</ele>
        <time>2014-01-25T10:30:36Z</time>
      </trkpt>
      <trkpt lat="12.911555143073201" lon="99.669670108705759">
        <ele>79.9266357421875</ele>
        <time>2014-01-25T10:31:06Z</time>
      </trkpt>
      <trkpt lat="12.910196520388126" lon="99.672160372138023">
        <ele>84.252685546875</ele>
        <time>2014-01-25T10:32:06Z</time>
      </trkpt>
      <trkpt lat="12.908772015944123" lon="99.675178695470095">
        <ele>84.7333984375</ele>
        <time>2014-01-25T10:33:06Z</time>
      </trkpt>
      <trkpt lat="12.90808486752212" lon="99.677312476560473">
        <ele>99.6337890625</ele>
        <time>2014-01-25T10:34:06Z</time>
      </trkpt>
      <trkpt lat="12.907932484522462" lon="99.678374715149403">
        <ele>105.4017333984375</ele>
        <time>2014-01-25T10:34:36Z</time>
      </trkpt>
      <trkpt lat="12.90798663161695" lon="99.679493950679898">
        <ele>107.8050537109375</ele>
        <time>2014-01-25T10:35:06Z</time>
      </trkpt>
      <trkpt lat="12.90831645950675" lon="99.68028025701642">
        <ele>114.0535888671875</ele>
        <time>2014-01-25T10:35:36Z</time>
      </trkpt>
      <trkpt lat="12.908704290166497" lon="99.681099001318216">
        <ele>116.9375</ele>
        <time>2014-01-25T10:36:06Z</time>
      </trkpt>
      <trkpt lat="12.908074390143156" lon="99.681768044829369">
        <ele>120.3021240234375</ele>
        <time>2014-01-25T10:36:36Z</time>
      </trkpt>
      <trkpt lat="12.906857002526522" lon="99.683470409363508">
        <ele>114.0535888671875</ele>
        <time>2014-01-25T10:37:06Z</time>
      </trkpt>
      <trkpt lat="12.903193272650242" lon="99.683018121868372">
        <ele>104.4404296875</ele>
        <time>2014-01-25T10:38:06Z</time>
      </trkpt>
      <trkpt lat="12.90128412656486" lon="99.683356080204248">
        <ele>101.07568359375</ele>
        <time>2014-01-25T10:38:36Z</time>
      </trkpt>
      <trkpt lat="12.900529922917485" lon="99.682064596563578">
        <ele>104.9210205078125</ele>
        <time>2014-01-25T10:39:06Z</time>
      </trkpt>
      <trkpt lat="12.899948721751571" lon="99.680662555620074">
        <ele>109.7276611328125</ele>
        <time>2014-01-25T10:40:06Z</time>
      </trkpt>
      <trkpt lat="12.899938328191638" lon="99.680737825110555">
        <ele>110.208251953125</ele>
        <time>2014-01-25T10:40:36Z</time>
      </trkpt>
    </trkseg>
  </trk>

</gpx>
